Coral Electra — PCAG — position and weather

sailwx.info

Track history (hours):
 
Tides and Currents Weather Stations Pressure Air Temp Water Temp Dewpoint Dewpoint Depression Visibility Wind Speed Wind Dir Waves Ship Positions

Coral Electra

Last reported at 2016-Aug-29 06:32 UTC. Time now 2016-Aug-29 07:16 UTC.
Position N 53°27' E 006°50'.

Length 14 m.

Type: Port tender. MMSI: 244690019.

Date/timePositionNaut miles runAvg speedWind from/ knotsBaromVisibWave heightAir tempDewpointWater temp
2016-Aug-29 06:32N 53°27' E 006°50'0 0.0
2016-Aug-29 05:33N 53°27' E 006°50'0 0.0
2016-Aug-29 04:28N 53°27' E 006°50'0 0.0
2016-Aug-29 00:06N 53°27' E 006°50'0 0.0
2016-Aug-28 22:27N 53°27' E 006°50'0 0.0
2016-Aug-28 15:15N 53°27' E 006°50'0 0.0
2016-Aug-28 14:20N 53°27' E 006°50'0 0.0
2016-Aug-28 13:26N 53°27' E 006°50'0 0.0
2016-Aug-28 12:31N 53°27' E 006°50'0 0.0
2016-Aug-28 11:20N 53°27' E 006°50'0 0.0
2016-Aug-28 10:28N 53°27' E 006°50'0 0.0
2016-Aug-28 09:22N 53°27' E 006°50'0 0.0
2016-Aug-28 08:32N 53°27' E 006°50'0 0.0
2016-Aug-27 17:27N 53°27' E 006°50'0 0.0
2016-Aug-27 12:29N 53°27' E 006°50'0 0.0
2016-Aug-27 04:32N 53°27' E 006°50'0 0.0
2016-Aug-27 02:03N 53°27' E 006°50'0 0.0
2016-Aug-27 01:24N 53°27' E 006°50'0 0.0
2016-Aug-27 00:27N 53°27' E 006°50'0 0.0
2016-Aug-26 23:19N 53°27' E 006°50'0 0.0
2016-Aug-26 22:32N 53°27' E 006°50'0 0.0
2016-Aug-26 21:27N 53°27' E 006°50'0 0.0
2016-Aug-26 20:28N 53°27' E 006°50'0 0.0
2016-Aug-26 17:13N 53°27' E 006°50'0 0.0
2016-Aug-26 16:19N 53°27' E 006°50'0 0.0
2016-Aug-26 14:25N 53°27' E 006°50'0 0.0
2016-Aug-26 13:28N 53°27' E 006°50'0 0.0
2016-Aug-26 12:32N 53°27' E 006°50'0 0.0
2016-Aug-26 11:33N 53°27' E 006°50'0 0.0
2016-Aug-26 10:29N 53°27' E 006°50'0 0.0
2016-Aug-26 09:32N 53°27' E 006°50'0 0.0
2016-Aug-26 08:25N 53°27' E 006°50'0 0.0
2016-Aug-26 06:32N 53°27' E 006°50'0 0.0
2016-Aug-26 02:32N 53°27' E 006°50'0 0.0
2016-Aug-26 01:25N 53°27' E 006°50'0 0.0
2016-Aug-26 00:20N 53°27' E 006°50'0 0.0
2016-Aug-25 23:33N 53°27' E 006°50'0 0.0
2016-Aug-25 22:09N 53°27' E 006°50'0 0.0
2016-Aug-25 20:24N 53°27' E 006°50'0 0.0
2016-Aug-25 19:15N 53°27' E 006°50'0 0.0
2016-Aug-25 18:29N 53°27' E 006°50'0 0.0
2016-Aug-25 17:05N 53°27' E 006°50'0 0.0
2016-Aug-25 15:32N 53°27' E 006°50'0 0.0
2016-Aug-25 14:29N 53°27' E 006°50'1819.4
2016-Aug-25 13:33N 53°42' E 006°32'7 7.3
2016-Aug-25 12:32N 53°35' E 006°38'11 1.7
2016-Aug-25 06:10N 53°27' E 006°50'0 0.0
2016-Aug-25 04:32N 53°27' E 006°50'0 0.0
2016-Aug-25 03:23N 53°27' E 006°50'0 0.0
2016-Aug-25 02:33N 53°27' E 006°50'0 0.0
2016-Aug-25 01:18N 53°27' E 006°50'0 0.0
2016-Aug-25 00:27N 53°27' E 006°50'0 0.0
2016-Aug-24 23:13N 53°27' E 006°50'0 0.0
2016-Aug-24 22:30N 53°27' E 006°50'2525.0
2016-Aug-24 21:31N 53°47' E 006°25'2 0.2
2016-Aug-24 12:32N 53°47' E 006°28'2424.1
2016-Aug-24 11:33N 53°27' E 006°49'0 0.3
2016-Aug-24 10:31N 53°27' E 006°50'0 0.0
2016-Aug-24 08:25N 53°27' E 006°50'0 0.0
2016-Aug-24 07:08N 53°27' E 006°50'0 0.0
2016-Aug-24 04:11N 53°27' E 006°50'0 0.0
2016-Aug-24 01:24N 53°27' E 006°50'0 0.0
2016-Aug-24 00:08N 53°27' E 006°50'0 0.0
2016-Aug-23 21:17N 53°27' E 006°50'0 0.0
2016-Aug-23 20:27N 53°27' E 006°50'0 0.0
2016-Aug-23 18:33N 53°27' E 006°50'0 0.0
2016-Aug-23 09:20N 53°27' E 006°50'0 0.0
2016-Aug-23 08:16N 53°27' E 006°50'0 0.0
2016-Aug-23 07:28N 53°27' E 006°50'0 0.0
2016-Aug-23 03:09N 53°27' E 006°50'0 0.0
2016-Aug-23 02:07N 53°27' E 006°50'0 0.0
2016-Aug-22 22:21N 53°27' E 006°50'0 0.0
2016-Aug-22 20:20N 53°27' E 006°50'0 0.0
2016-Aug-22 18:27N 53°27' E 006°50'0 0.0
2016-Aug-22 17:31N 53°27' E 006°50'0 0.0
2016-Aug-22 16:29N 53°27' E 006°50'0 0.0
2016-Aug-22 11:07N 53°27' E 006°50'0 0.0
2016-Aug-22 05:24N 53°27' E 006°50'0 0.0
2016-Aug-22 04:26N 53°27' E 006°50'0 0.0
2016-Aug-22 02:21N 53°27' E 006°50'0 0.0
2016-Aug-22 00:30N 53°27' E 006°50'0 0.0
2016-Aug-21 23:32N 53°27' E 006°50'0 0.0
2016-Aug-21 22:27N 53°27' E 006°50'0 0.0
2016-Aug-21 20:23N 53°27' E 006°50'0 0.0
2016-Aug-21 19:15N 53°27' E 006°50'0 0.0
2016-Aug-21 18:33N 53°27' E 006°50'0 0.0
2016-Aug-21 17:26N 53°27' E 006°50'0 0.0
2016-Aug-21 16:24N 53°27' E 006°50'0 0.0
2016-Aug-21 15:31N 53°27' E 006°50'0 0.0
2016-Aug-21 14:32N 53°27' E 006°50'0 0.0
2016-Aug-21 13:31N 53°27' E 006°50'0 0.0
2016-Aug-21 11:33N 53°27' E 006°50'0 0.0
2016-Aug-21 10:04N 53°27' E 006°50'0 0.0
2016-Aug-21 09:19N 53°27' E 006°50'0 0.0
2016-Aug-21 08:29N 53°27' E 006°50'0 0.0
2016-Aug-21 07:20N 53°27' E 006°50'0 0.0
2016-Aug-21 02:33N 53°27' E 006°50'0 0.0
2016-Aug-20 22:10N 53°27' E 006°50'0 0.0
2016-Aug-20 19:30N 53°27' E 006°50'0 0.0
2016-Aug-20 18:21N 53°27' E 006°50'0 0.0
2016-Aug-20 17:33N 53°27' E 006°50'0 0.0
2016-Aug-20 14:32N 53°27' E 006°50'0 0.0
2016-Aug-20 13:33N 53°27' E 006°50'0 0.0
2016-Aug-20 08:34N 53°27' E 006°50'0 0.0
2016-Aug-20 07:23N 53°27' E 006°50'0 0.0
2016-Aug-20 06:19N 53°27' E 006°50'0 0.0
2016-Aug-20 05:28N 53°27' E 006°50'0 0.0
2016-Aug-20 04:32N 53°27' E 006°50'0 0.0
2016-Aug-20 03:17N 53°27' E 006°50'0 0.0
2016-Aug-20 02:26N 53°27' E 006°50'0 0.0
2016-Aug-20 01:29N 53°27' E 006°50'0 0.0
2016-Aug-19 23:05N 53°27' E 006°50'0 0.0
2016-Aug-19 22:17N 53°27' E 006°50'0 0.0
2016-Aug-19 21:19N 53°27' E 006°50'0 0.0
2016-Aug-19 20:33N 53°27' E 006°50'0 0.0
2016-Aug-19 19:07N 53°27' E 006°50'0 0.0
2016-Aug-19 18:22N 53°27' E 006°50'0 0.0
2016-Aug-19 17:33N 53°27' E 006°50'0 0.0
2016-Aug-19 15:33N 53°27' E 006°50'0 0.0
2016-Aug-19 13:29N 53°27' E 006°50'0 0.0
2016-Aug-19 11:32N 53°27' E 006°50'0 0.3
2016-Aug-19 10:32N 53°27' E 006°50'7 6.3
2016-Aug-19 09:30N 53°31' E 006°58'7 7.2
2016-Aug-19 08:33N 53°27' E 006°50'0 0.0
2016-Aug-19 07:22N 53°27' E 006°50'  
Track history (hours):
 
Tides and Currents Weather Stations Pressure Air Temp Water Temp Dewpoint Dewpoint Depression Visibility Wind Speed Wind Dir Waves Ship Positions

Coral Electra

Last reported at 2016-Aug-29 06:32 UTC. Time now 2016-Aug-29 07:16 UTC.
Position N 53°27' E 006°50'.

Length 14 m.

Type: Port tender. MMSI: 244690019.

Date/timePositionNaut miles runAvg speedWind from/ knotsBaromVisibWave heightAir tempDewpointWater temp
2016-Aug-29 06:32N 53°27' E 006°50'0 0.0
2016-Aug-29 05:33N 53°27' E 006°50'0 0.0
2016-Aug-29 04:28N 53°27' E 006°50'0 0.0
2016-Aug-29 00:06N 53°27' E 006°50'0 0.0
2016-Aug-28 22:27N 53°27' E 006°50'0 0.0
2016-Aug-28 15:15N 53°27' E 006°50'0 0.0
2016-Aug-28 14:20N 53°27' E 006°50'0 0.0
2016-Aug-28 13:26N 53°27' E 006°50'0 0.0
2016-Aug-28 12:31N 53°27' E 006°50'0 0.0
2016-Aug-28 11:20N 53°27' E 006°50'0 0.0
2016-Aug-28 10:28N 53°27' E 006°50'0 0.0
2016-Aug-28 09:22N 53°27' E 006°50'0 0.0
2016-Aug-28 08:32N 53°27' E 006°50'0 0.0
2016-Aug-27 17:27N 53°27' E 006°50'0 0.0
2016-Aug-27 12:29N 53°27' E 006°50'0 0.0
2016-Aug-27 04:32N 53°27' E 006°50'0 0.0
2016-Aug-27 02:03N 53°27' E 006°50'0 0.0
2016-Aug-27 01:24N 53°27' E 006°50'0 0.0
2016-Aug-27 00:27N 53°27' E 006°50'0 0.0
2016-Aug-26 23:19N 53°27' E 006°50'0 0.0
2016-Aug-26 22:32N 53°27' E 006°50'0 0.0
2016-Aug-26 21:27N 53°27' E 006°50'0 0.0
2016-Aug-26 20:28N 53°27' E 006°50'0 0.0
2016-Aug-26 17:13N 53°27' E 006°50'0 0.0
2016-Aug-26 16:19N 53°27' E 006°50'0 0.0
2016-Aug-26 14:25N 53°27' E 006°50'0 0.0
2016-Aug-26 13:28N 53°27' E 006°50'0 0.0
2016-Aug-26 12:32N 53°27' E 006°50'0 0.0
2016-Aug-26 11:33N 53°27' E 006°50'0 0.0
2016-Aug-26 10:29N 53°27' E 006°50'0 0.0
2016-Aug-26 09:32N 53°27' E 006°50'0 0.0
2016-Aug-26 08:25N 53°27' E 006°50'0 0.0
2016-Aug-26 06:32N 53°27' E 006°50'0 0.0
2016-Aug-26 02:32N 53°27' E 006°50'0 0.0
2016-Aug-26 01:25N 53°27' E 006°50'0 0.0
2016-Aug-26 00:20N 53°27' E 006°50'0 0.0
2016-Aug-25 23:33N 53°27' E 006°50'0 0.0
2016-Aug-25 22:09N 53°27' E 006°50'0 0.0
2016-Aug-25 20:24N 53°27' E 006°50'0 0.0
2016-Aug-25 19:15N 53°27' E 006°50'0 0.0
2016-Aug-25 18:29N 53°27' E 006°50'0 0.0
2016-Aug-25 17:05N 53°27' E 006°50'0 0.0
2016-Aug-25 15:32N 53°27' E 006°50'0 0.0
2016-Aug-25 14:29N 53°27' E 006°50'1819.4
2016-Aug-25 13:33N 53°42' E 006°32'7 7.3
2016-Aug-25 12:32N 53°35' E 006°38'11 1.7
2016-Aug-25 06:10N 53°27' E 006°50'0 0.0
2016-Aug-25 04:32N 53°27' E 006°50'0 0.0
2016-Aug-25 03:23N 53°27' E 006°50'0 0.0
2016-Aug-25 02:33N 53°27' E 006°50'0 0.0
2016-Aug-25 01:18N 53°27' E 006°50'0 0.0
2016-Aug-25 00:27N 53°27' E 006°50'0 0.0
2016-Aug-24 23:13N 53°27' E 006°50'0 0.0
2016-Aug-24 22:30N 53°27' E 006°50'2525.0
2016-Aug-24 21:31N 53°47' E 006°25'2 0.2
2016-Aug-24 12:32N 53°47' E 006°28'2424.1
2016-Aug-24 11:33N 53°27' E 006°49'0 0.3
2016-Aug-24 10:31N 53°27' E 006°50'0 0.0
2016-Aug-24 08:25N 53°27' E 006°50'0 0.0
2016-Aug-24 07:08N 53°27' E 006°50'0 0.0
2016-Aug-24 04:11N 53°27' E 006°50'0 0.0
2016-Aug-24 01:24N 53°27' E 006°50'0 0.0
2016-Aug-24 00:08N 53°27' E 006°50'0 0.0
2016-Aug-23 21:17N 53°27' E 006°50'0 0.0
2016-Aug-23 20:27N 53°27' E 006°50'0 0.0
2016-Aug-23 18:33N 53°27' E 006°50'0 0.0
2016-Aug-23 09:20N 53°27' E 006°50'0 0.0
2016-Aug-23 08:16N 53°27' E 006°50'0 0.0
2016-Aug-23 07:28N 53°27' E 006°50'0 0.0
2016-Aug-23 03:09N 53°27' E 006°50'0 0.0
2016-Aug-23 02:07N 53°27' E 006°50'0 0.0
2016-Aug-22 22:21N 53°27' E 006°50'0 0.0
2016-Aug-22 20:20N 53°27' E 006°50'0 0.0
2016-Aug-22 18:27N 53°27' E 006°50'0 0.0
2016-Aug-22 17:31N 53°27' E 006°50'0 0.0
2016-Aug-22 16:29N 53°27' E 006°50'0 0.0
2016-Aug-22 11:07N 53°27' E 006°50'0 0.0
2016-Aug-22 05:24N 53°27' E 006°50'0 0.0
2016-Aug-22 04:26N 53°27' E 006°50'0 0.0
2016-Aug-22 02:21N 53°27' E 006°50'0 0.0
2016-Aug-22 00:30N 53°27' E 006°50'0 0.0
2016-Aug-21 23:32N 53°27' E 006°50'0 0.0
2016-Aug-21 22:27N 53°27' E 006°50'0 0.0
2016-Aug-21 20:23N 53°27' E 006°50'0 0.0
2016-Aug-21 19:15N 53°27' E 006°50'0 0.0
2016-Aug-21 18:33N 53°27' E 006°50'0 0.0
2016-Aug-21 17:26N 53°27' E 006°50'0 0.0
2016-Aug-21 16:24N 53°27' E 006°50'0 0.0
2016-Aug-21 15:31N 53°27' E 006°50'0 0.0
2016-Aug-21 14:32N 53°27' E 006°50'0 0.0
2016-Aug-21 13:31N 53°27' E 006°50'0 0.0
2016-Aug-21 11:33N 53°27' E 006°50'0 0.0
2016-Aug-21 10:04N 53°27' E 006°50'0 0.0
2016-Aug-21 09:19N 53°27' E 006°50'0 0.0
2016-Aug-21 08:29N 53°27' E 006°50'0 0.0
2016-Aug-21 07:20N 53°27' E 006°50'0 0.0
2016-Aug-21 02:33N 53°27' E 006°50'0 0.0
2016-Aug-20 22:10N 53°27' E 006°50'0 0.0
2016-Aug-20 19:30N 53°27' E 006°50'0 0.0
2016-Aug-20 18:21N 53°27' E 006°50'0 0.0
2016-Aug-20 17:33N 53°27' E 006°50'0 0.0
2016-Aug-20 14:32N 53°27' E 006°50'0 0.0
2016-Aug-20 13:33N 53°27' E 006°50'0 0.0
2016-Aug-20 08:34N 53°27' E 006°50'0 0.0
2016-Aug-20 07:23N 53°27' E 006°50'0 0.0
2016-Aug-20 06:19N 53°27' E 006°50'0 0.0
2016-Aug-20 05:28N 53°27' E 006°50'0 0.0
2016-Aug-20 04:32N 53°27' E 006°50'0 0.0
2016-Aug-20 03:17N 53°27' E 006°50'0 0.0
2016-Aug-20 02:26N 53°27' E 006°50'0 0.0
2016-Aug-20 01:29N 53°27' E 006°50'0 0.0
2016-Aug-19 23:05N 53°27' E 006°50'0 0.0
2016-Aug-19 22:17N 53°27' E 006°50'0 0.0
2016-Aug-19 21:19N 53°27' E 006°50'0 0.0
2016-Aug-19 20:33N 53°27' E 006°50'0 0.0
2016-Aug-19 19:07N 53°27' E 006°50'0 0.0
2016-Aug-19 18:22N 53°27' E 006°50'0 0.0
2016-Aug-19 17:33N 53°27' E 006°50'0 0.0
2016-Aug-19 15:33N 53°27' E 006°50'0 0.0
2016-Aug-19 13:29N 53°27' E 006°50'0 0.0
2016-Aug-19 11:32N 53°27' E 006°50'0 0.3
2016-Aug-19 10:32N 53°27' E 006°50'7 6.3
2016-Aug-19 09:30N 53°31' E 006°58'7 7.2
2016-Aug-19 08:33N 53°27' E 006°50'0 0.0
2016-Aug-19 07:22N 53°27' E 006°50'  

Dump ship's entire track history